sensor_id;sensor_type;location;lat;lon;timestamp;pressure;altitude;pressure_sealevel;temperature;humidity
71774;BME280;59607;52.130;5.430;2023-03-03T00:00:00;102662.94;;;1.49;100.00
71774;BME280;59607;52.130;5.430;2023-03-03T00:02:28;102671.72;;;1.45;100.00
71774;BME280;59607;52.130;5.430;2023-03-03T00:05:00;102677.00;;;1.42;100.00
71774;BME280;59607;52.130;5.430;2023-03-03T00:07:27;102682.28;;;1.39;100.00
71774;BME280;59607;52.130;5.430;2023-03-03T00:09:56;102672.00;;;1.37;100.00
71774;BME280;59607;52.130;5.430;2023-03-03T00:12:25;102675.38;;;1.39;100.00
71774;BME280;59607;52.130;5.430;2023-03-03T00:14:52;102669.28;;;1.40;100.00
71774;BME280;59607;52.130;5.430;2023-03-03T00:17:33;102672.69;;;1.42;100.00
71774;BME280;59607;52.130;5.430;2023-03-03T00:20:01;102672.63;;;1.44;100.00
71774;BME280;59607;52.130;5.430;2023-03-03T00:22:35;102676.81;;;1.46;100.00
71774;BME280;59607;52.130;5.430;2023-03-03T00:25:27;102684.47;;;1.50;100.00
71774;BME280;59607;52.130;5.430;2023-03-03T00:28:07;102678.47;;;1.49;100.00
71774;BME280;59607;52.130;5.430;2023-03-03T00:30:41;102687.97;;;1.48;100.00
71774;BME280;59607;52.130;5.430;2023-03-03T00:33:32;102688.97;;;1.44;100.00
71774;BME280;59607;52.130;5.430;2023-03-03T00:42:19;102694.19;;;1.43;100.00
71774;BME280;59607;52.130;5.430;2023-03-03T00:44:46;102694.03;;;1.47;100.00
71774;BME280;59607;52.130;5.430;2023-03-03T00:47:30;102694.81;;;1.50;100.00
71774;BME280;59607;52.130;5.430;2023-03-03T00:52:51;102694.91;;;1.46;100.00
71774;BME280;59607;52.130;5.430;2023-03-03T00:55:20;102688.94;;;1.46;100.00
71774;BME280;59607;52.130;5.430;2023-03-03T00:57:50;102694.03;;;1.47;100.00
71774;BME280;59607;52.130;5.430;2023-03-03T01:00:21;102700.78;;;1.52;100.00
71774;BME280;59607;52.130;5.430;2023-03-03T01:02:51;102691.16;;;1.55;100.00
71774;BME280;59607;52.130;5.430;2023-03-03T01:05:18;102694.09;;;1.46;100.00
71774;BME280;59607;52.130;5.430;2023-03-03T01:07:50;102697.78;;;1.39;100.00
71774;BME280;59607;52.130;5.430;2023-03-03T01:10:20;102700.38;;;1.39;100.00
71774;BME280;59607;52.130;5.430;2023-03-03T01:12:48;102695.22;;;1.39;100.00
71774;BME280;59607;52.130;5.430;2023-03-03T01:15:20;102699.59;;;1.37;100.00
71774;BME280;59607;52.130;5.430;2023-03-03T01:17:47;102701.84;;;1.46;100.00
71774;BME280;59607;52.130;5.430;2023-03-03T01:20:21;102700.88;;;1.48;100.00
71774;BME280;59607;52.130;5.430;2023-03-03T01:22:48;102698.25;;;1.50;100.00
71774;BME280;59607;52.130;5.430;2023-03-03T01:25:16;102698.38;;;1.47;100.00
71774;BME280;59607;52.130;5.430;2023-03-03T01:27:45;102706.06;;;1.48;100.00
71774;BME280;59607;52.130;5.430;2023-03-03T01:30:12;102700.03;;;1.48;100.00
71774;BME280;59607;52.130;5.430;2023-03-03T01:32:39;102696.78;;;1.43;100.00
71774;BME280;59607;52.130;5.430;2023-03-03T01:35:10;102696.94;;;1.38;100.00
71774;BME280;59607;52.130;5.430;2023-03-03T01:37:36;102694.41;;;1.37;100.00
71774;BME280;59607;52.130;5.430;2023-03-03T01:40:19;102698.69;;;1.38;100.00
71774;BME280;59607;52.130;5.430;2023-03-03T01:42:49;102696.75;;;1.44;100.00
71774;BME280;59607;52.130;5.430;2023-03-03T01:45:38;102698.41;;;1.45;100.00
71774;BME280;59607;52.130;5.430;2023-03-03T01:48:41;102704.53;;;1.43;100.00
71774;BME280;59607;52.130;5.430;2023-03-03T01:51:29;102701.28;;;1.38;100.00
71774;BME280;59607;52.130;5.430;2023-03-03T01:54:00;102702.16;;;1.37;100.00
71774;BME280;59607;52.130;5.430;2023-03-03T01:56:28;102697.78;;;1.39;100.00
71774;BME280;59607;52.130;5.430;2023-03-03T01:59:04;102697.69;;;1.42;100.00
71774;BME280;59607;52.130;5.430;2023-03-03T02:01:35;102702.06;;;1.40;100.00
71774;BME280;59607;52.130;5.430;2023-03-03T02:04:16;102704.38;;;1.47;100.00
71774;BME280;59607;52.130;5.430;2023-03-03T02:06:52;102699.16;;;1.49;100.00
71774;BME280;59607;52.130;5.430;2023-03-03T02:09:25;102702.41;;;1.54;100.00
71774;BME280;59607;52.130;5.430;2023-03-03T02:11:58;102709.38;;;1.52;100.00
71774;BME280;59607;52.130;5.430;2023-03-03T02:14:34;102700.78;;;1.52;100.00
71774;BME280;59607;52.130;5.430;2023-03-03T02:17:00;102704.28;;;1.51;100.00
71774;BME280;59607;52.130;5.430;2023-03-03T02:19:51;102696.63;;;1.47;100.00
71774;BME280;59607;52.130;5.430;2023-03-03T02:22:34;102698.47;;;1.44;100.00
71774;BME280;59607;52.130;5.430;2023-03-03T02:25:08;102695.09;;;1.42;100.00
71774;BME280;59607;52.130;5.430;2023-03-03T02:27:39;102694.34;;;1.38;100.00
71774;BME280;59607;52.130;5.430;2023-03-03T02:30:22;102698.03;;;1.32;100.00
71774;BME280;59607;52.130;5.430;2023-03-03T02:32:52;102695.38;;;1.34;100.00
71774;BME280;59607;52.130;5.430;2023-03-03T02:35:29;102700.56;;;1.34;100.00
71774;BME280;59607;52.130;5.430;2023-03-03T02:38:03;102696.94;;;1.38;100.00
71774;BME280;59607;52.130;5.430;2023-03-03T02:40:36;102697.69;;;1.42;100.00
71774;BME280;59607;52.130;5.430;2023-03-03T02:43:16;102691.06;;;1.34;100.00
71774;BME280;59607;52.130;5.430;2023-03-03T02:45:50;102693.69;;;1.33;100.00
71774;BME280;59607;52.130;5.430;2023-03-03T02:48:17;102698.03;;;1.32;100.00
71774;BME280;59607;52.130;5.430;2023-03-03T02:50:47;102697.22;;;1.30;100.00
71774;BME280;59607;52.130;5.430;2023-03-03T02:53:21;102695.66;;;1.26;100.00
71774;BME280;59607;52.130;5.430;2023-03-03T02:55:50;102703.47;;;1.25;100.00
71774;BME280;59607;52.130;5.430;2023-03-03T02:58:20;102705.88;;;1.29;100.00
71774;BME280;59607;52.130;5.430;2023-03-03T03:00:52;102706.63;;;1.33;100.00
71774;BME280;59607;52.130;5.430;2023-03-03T03:03:24;102701.59;;;1.28;100.00
71774;BME280;59607;52.130;5.430;2023-03-03T03:05:50;102705.78;;;1.32;100.00
71774;BME280;59607;52.130;5.430;2023-03-03T03:08:21;102708.53;;;1.28;100.00
71774;BME280;59607;52.130;5.430;2023-03-03T03:10:48;102712.16;;;1.22;100.00
71774;BME280;59607;52.130;5.430;2023-03-03T03:13:15;102702.63;;;1.24;100.00
71774;BME280;59607;52.130;5.430;2023-03-03T03:15:47;102699.22;;;1.22;100.00
71774;BME280;59607;52.130;5.430;2023-03-03T03:18:14;102711.84;;;1.31;100.00
71774;BME280;59607;52.130;5.430;2023-03-03T03:20:44;102700.38;;;1.39;100.00
71774;BME280;59607;52.130;5.430;2023-03-03T03:23:18;102691.88;;;1.35;100.00
71774;BME280;59607;52.130;5.430;2023-03-03T03:26:06;102693.47;;;1.39;100.00
71774;BME280;59607;52.130;5.430;2023-03-03T03:28:33;102690.03;;;1.39;100.00
71774;BME280;59607;52.130;5.430;2023-03-03T03:31:00;102703.88;;;1.38;100.00
71774;BME280;59607;52.130;5.430;2023-03-03T03:33:31;102699.28;;;1.46;100.00
71774;BME280;59607;52.130;5.430;2023-03-03T03:36:00;102706.91;;;1.49;100.00
71774;BME280;59607;52.130;5.430;2023-03-03T03:38:28;102696.94;;;1.38;100.00
71774;BME280;59607;52.130;5.430;2023-03-03T03:41:00;102709.03;;;1.38;100.00
71774;BME280;59607;52.130;5.430;2023-03-03T03:43:26;102701.34;;;1.36;100.00
71774;BME280;59607;52.130;5.430;2023-03-03T03:46:02;102705.56;;;1.39;100.00
71774;BME280;59607;52.130;5.430;2023-03-03T03:48:28;102715.94;;;1.37;100.00
71774;BME280;59607;52.130;5.430;2023-03-03T03:50:55;102712.28;;;1.43;100.00
71774;BME280;59607;52.130;5.430;2023-03-03T03:53:27;102706.19;;;1.45;100.00
71774;BME280;59607;52.130;5.430;2023-03-03T03:55:55;102713.25;;;1.40;100.00
71774;BME280;59607;52.130;5.430;2023-03-03T03:58:25;102725.19;;;1.44;100.00
71774;BME280;59607;52.130;5.430;2023-03-03T04:00:54;102711.41;;;1.44;100.00
71774;BME280;59607;52.130;5.430;2023-03-03T04:03:21;102716.53;;;1.45;100.00
71774;BME280;59607;52.130;5.430;2023-03-03T04:06:07;102719.84;;;1.49;100.00
71774;BME280;59607;52.130;5.430;2023-03-03T04:08:36;102719.78;;;1.51;100.00
71774;BME280;59607;52.130;5.430;2023-03-03T04:11:03;102723.09;;;1.54;100.00
71774;BME280;59607;52.130;5.430;2023-03-03T04:13:32;102716.41;;;1.48;100.00
71774;BME280;59607;52.130;5.430;2023-03-03T04:16:03;102714.66;;;1.49;100.00
71774;BME280;59607;52.130;5.430;2023-03-03T04:18:29;102716.41;;;1.48;100.00
71774;BME280;59607;52.130;5.430;2023-03-03T04:20:58;102716.34;;;1.50;100.00
71774;BME280;59607;52.130;5.430;2023-03-03T04:23:31;102724.16;;;1.48;100.00
71774;BME280;59607;52.130;5.430;2023-03-03T04:26:01;102708.59;;;1.50;100.00
71774;BME280;59607;52.130;5.430;2023-03-03T04:28:36;102711.47;;;1.42;100.00
71774;BME280;59607;52.130;5.430;2023-03-03T04:31:37;102716.34;;;1.50;100.00
71774;BME280;59607;52.130;5.430;2023-03-03T04:34:19;102727.38;;;1.55;100.00
71774;BME280;59607;52.130;5.430;2023-03-03T04:36:48;102720.56;;;1.53;100.00
71774;BME280;59607;52.130;5.430;2023-03-03T04:39:17;102711.91;;;1.54;100.00
71774;BME280;59607;52.130;5.430;2023-03-03T04:41:48;102720.63;;;1.51;100.00
71774;BME280;59607;52.130;5.430;2023-03-03T04:44:15;102724.00;;;1.53;100.00
71774;BME280;59607;52.130;5.430;2023-03-03T04:46:41;102725.63;;;1.56;100.00
71774;BME280;59607;52.130;5.430;2023-03-03T04:49:14;102718.88;;;1.52;100.00
71774;BME280;59607;52.130;5.430;2023-03-03T04:51:44;102728.13;;;1.57;100.00
71774;BME280;59607;52.130;5.430;2023-03-03T04:54:11;102724.78;;;1.55;100.00
71774;BME280;59607;52.130;5.430;2023-03-03T04:56:42;102726.47;;;1.56;100.00
71774;BME280;59607;52.130;5.430;2023-03-03T04:59:09;102732.38;;;1.60;100.00
71774;BME280;59607;52.130;5.430;2023-03-03T05:01:39;102728.13;;;1.57;100.00
71774;BME280;59607;52.130;5.430;2023-03-03T05:04:06;102725.53;;;1.59;100.00
71774;BME280;59607;52.130;5.430;2023-03-03T05:06:33;102723.75;;;1.59;100.00
71774;BME280;59607;52.130;5.430;2023-03-03T05:08:59;102715.19;;;1.59;100.00
71774;BME280;59607;52.130;5.430;2023-03-03T05:11:26;102716.06;;;1.58;100.00
71774;BME280;59607;52.130;5.430;2023-03-03T05:13:52;102714.56;;;1.52;100.00
71774;BME280;59607;52.130;5.430;2023-03-03T05:16:19;102710.31;;;1.50;100.00
71774;BME280;59607;52.130;5.430;2023-03-03T05:18:45;102718.03;;;1.51;100.00
71774;BME280;59607;52.130;5.430;2023-03-03T05:21:24;102717.16;;;1.52;100.00
71774;BME280;59607;52.130;5.430;2023-03-03T05:23:57;102716.00;;;1.59;100.00
71774;BME280;59607;52.130;5.430;2023-03-03T05:26:24;102720.25;;;1.62;100.00
71774;BME280;59607;52.130;5.430;2023-03-03T05:28:51;102728.00;;;1.62;100.00
71774;BME280;59607;52.130;5.430;2023-03-03T05:31:22;102724.69;;;1.58;100.00
71774;BME280;59607;52.130;5.430;2023-03-03T05:33:49;102721.84;;;1.65;100.00
71774;BME280;59607;52.130;5.430;2023-03-03T05:36:15;102717.59;;;1.64;100.00
71774;BME280;59607;52.130;5.430;2023-03-03T05:38:51;102715.94;;;1.61;100.00
71774;BME280;59607;52.130;5.430;2023-03-03T05:41:17;102720.88;;;1.67;100.00
71774;BME280;59607;52.130;5.430;2023-03-03T05:43:44;102719.16;;;1.68;100.00
71774;BME280;59607;52.130;5.430;2023-03-03T05:46:11;102724.44;;;1.65;100.00
71774;BME280;59607;52.130;5.430;2023-03-03T05:48:37;102724.50;;;1.63;100.00
71774;BME280;59607;52.130;5.430;2023-03-03T05:51:07;102728.66;;;1.67;100.00
71774;BME280;59607;52.130;5.430;2023-03-03T05:53:36;102726.56;;;1.77;100.00
71774;BME280;59607;52.130;5.430;2023-03-03T05:56:03;102730.06;;;1.76;100.00
71774;BME280;59607;52.130;5.430;2023-03-03T05:58:37;102727.06;;;1.87;100.00
71774;BME280;59607;52.130;5.430;2023-03-03T06:01:04;102731.25;;;1.91;100.00
71774;BME280;59607;52.130;5.430;2023-03-03T06:03:30;102726.94;;;1.90;100.00
71774;BME280;59607;52.130;5.430;2023-03-03T06:06:14;102726.94;;;1.90;100.00
71774;BME280;59607;52.130;5.430;2023-03-03T06:08:45;102742.59;;;1.87;100.00
71774;BME280;59607;52.130;5.430;2023-03-03T06:11:12;102733.03;;;1.89;100.00
71774;BME280;59607;52.130;5.430;2023-03-03T06:13:41;102737.34;;;1.89;100.00
71774;BME280;59607;52.130;5.430;2023-03-03T06:16:12;102739.16;;;1.87;100.00
71774;BME280;59607;52.130;5.430;2023-03-03T06:18:39;102741.75;;;1.87;100.00
71774;BME280;59607;52.130;5.430;2023-03-03T06:21:10;102745.00;;;1.92;100.00
71774;BME280;59607;52.130;5.430;2023-03-03T06:23:37;102750.19;;;1.92;100.00
71774;BME280;59607;52.130;5.430;2023-03-03T06:26:05;102744.31;;;1.87;100.00
71774;BME280;59607;52.130;5.430;2023-03-03T06:28:36;102748.44;;;1.92;100.00
71774;BME280;59607;52.130;5.430;2023-03-03T06:31:03;102750.25;;;1.90;100.00
71774;BME280;59607;52.130;5.430;2023-03-03T06:33:37;102755.59;;;1.85;100.00
71774;BME280;59607;52.130;5.430;2023-03-03T06:36:04;102748.91;;;1.80;100.00
71774;BME280;59607;52.130;5.430;2023-03-03T06:38:31;102753.91;;;1.84;100.00
71774;BME280;59607;52.130;5.430;2023-03-03T06:40:58;102762.34;;;1.90;100.00
71774;BME280;59607;52.130;5.430;2023-03-03T06:43:27;102759.66;;;1.93;100.00
71774;BME280;59607;52.130;5.430;2023-03-03T06:45:56;102765.72;;;1.92;100.00
71774;BME280;59607;52.130;5.430;2023-03-03T06:53:44;102764.03;;;1.91;100.00
71774;BME280;59607;52.130;5.430;2023-03-03T06:56:13;102769.16;;;1.92;100.00
71774;BME280;59607;52.130;5.430;2023-03-03T06:58:40;102769.03;;;1.95;100.00
71774;BME280;59607;52.130;5.430;2023-03-03T07:01:17;102774.09;;;1.99;100.00
71774;BME280;59607;52.130;5.430;2023-03-03T07:03:44;102780.06;;;2.01;100.00
71774;BME280;59607;52.130;5.430;2023-03-03T07:06:21;102776.44;;;2.05;100.00
71774;BME280;59607;52.130;5.430;2023-03-03T07:08:51;102785.69;;;2.12;100.00
71774;BME280;59607;52.130;5.430;2023-03-03T07:11:23;102786.38;;;2.16;100.00
71774;BME280;59607;52.130;5.430;2023-03-03T07:13:52;102788.16;;;2.15;100.00
71774;BME280;59607;52.130;5.430;2023-03-03T07:16:36;102794.13;;;2.17;100.00
71774;BME280;59607;52.130;5.430;2023-03-03T07:19:29;102791.53;;;2.17;100.00
71774;BME280;59607;52.130;5.430;2023-03-03T07:22:17;102802.59;;;2.21;100.00
71774;BME280;59607;52.130;5.430;2023-03-03T07:24:46;102795.78;;;2.18;100.00
71774;BME280;59607;52.130;5.430;2023-03-03T07:29:49;102801.47;;;2.28;100.00
71774;BME280;59607;52.130;5.430;2023-03-03T07:32:40;102798.34;;;2.42;100.00
71774;BME280;59607;52.130;5.430;2023-03-03T07:35:39;102802.44;;;2.48;100.00
71774;BME280;59607;52.130;5.430;2023-03-03T07:41:14;102801.41;;;2.52;100.00
71774;BME280;59607;52.130;5.430;2023-03-03T07:44:04;102809.25;;;2.51;100.00
71774;BME280;59607;52.130;5.430;2023-03-03T07:46:46;102817.00;;;2.51;100.00
71774;BME280;59607;52.130;5.430;2023-03-03T07:49:20;102821.03;;;2.58;100.00
71774;BME280;59607;52.130;5.430;2023-03-03T07:51:55;102821.03;;;2.58;100.00
71774;BME280;59607;52.130;5.430;2023-03-03T07:54:38;102825.34;;;2.59;100.00
71774;BME280;59607;52.130;5.430;2023-03-03T07:57:35;102825.03;;;2.67;100.00
71774;BME280;59607;52.130;5.430;2023-03-03T08:03:02;102824.13;;;2.90;100.00
71774;BME280;59607;52.130;5.430;2023-03-03T08:05:41;102822.22;;;2.94;100.00
71774;BME280;59607;52.130;5.430;2023-03-03T08:08:32;102825.22;;;3.05;100.00
71774;BME280;59607;52.130;5.430;2023-03-03T08:11:03;102833.66;;;3.11;100.00
71774;BME280;59607;52.130;5.430;2023-03-03T08:18:45;102840.91;;;3.02;100.00
71774;BME280;59607;52.130;5.430;2023-03-03T08:21:24;102847.06;;;3.00;100.00
71774;BME280;59607;52.130;5.430;2023-03-03T08:23:51;102848.34;;;3.10;100.00
71774;BME280;59607;52.130;5.430;2023-03-03T08:26:25;102844.63;;;3.17;100.00
71774;BME280;59607;52.130;5.430;2023-03-03T08:28:53;102852.06;;;3.25;100.00
71774;BME280;59607;52.130;5.430;2023-03-03T08:31:29;102852.94;;;3.26;100.00
71774;BME280;59607;52.130;5.430;2023-03-03T08:34:10;102849.41;;;3.27;100.00
71774;BME280;59607;52.130;5.430;2023-03-03T08:36:36;102851.69;;;3.35;100.00
71774;BME280;59607;52.130;5.430;2023-03-03T08:39:13;102851.88;;;3.30;100.00
71774;BME280;59607;52.130;5.430;2023-03-03T08:41:39;102858.44;;;3.39;100.00
71774;BME280;59607;52.130;5.430;2023-03-03T08:44:14;102858.19;;;3.45;100.00
71774;BME280;59607;52.130;5.430;2023-03-03T08:46:41;102856.03;;;3.55;100.00
71774;BME280;59607;52.130;5.430;2023-03-03T08:49:17;102857.59;;;3.59;100.00
71774;BME280;59607;52.130;5.430;2023-03-03T08:51:44;102861.28;;;3.74;100.00
71774;BME280;59607;52.130;5.430;2023-03-03T08:54:10;102852.44;;;3.78;100.00
71774;BME280;59607;52.130;5.430;2023-03-03T08:56:43;102858.13;;;3.87;100.00
71774;BME280;59607;52.130;5.430;2023-03-03T08:59:09;102850.19;;;3.90;100.00
71774;BME280;59607;52.130;5.430;2023-03-03T09:01:57;102857.09;;;3.91;100.00
71774;BME280;59607;52.130;5.430;2023-03-03T09:04:26;102852.38;;;3.99;100.00
71774;BME280;59607;52.130;5.430;2023-03-03T09:06:52;102851.50;;;4.00;100.00
71774;BME280;59607;52.130;5.430;2023-03-03T09:09:19;102852.25;;;4.02;100.00
71774;BME280;59607;52.130;5.430;2023-03-03T09:11:54;102859.16;;;4.23;100.00
71774;BME280;59607;52.130;5.430;2023-03-03T09:14:28;102857.41;;;4.23;100.00
71774;BME280;59607;52.130;5.430;2023-03-03T09:16:58;102852.28;;;4.22;100.00
71774;BME280;59607;52.130;5.430;2023-03-03T09:19:30;102857.25;;;4.26;100.00
71774;BME280;59607;52.130;5.430;2023-03-03T09:22:18;102854.66;;;4.26;100.00
71774;BME280;59607;52.130;5.430;2023-03-03T09:25:13;102855.59;;;4.43;100.00
71774;BME280;59607;52.130;5.430;2023-03-03T09:27:42;102851.94;;;4.66;100.00
71774;BME280;59607;52.130;5.430;2023-03-03T09:32:50;102854.25;;;4.90;100.00
71774;BME280;59607;52.130;5.430;2023-03-03T09:37:53;102851.34;;;4.97;100.00
71774;BME280;59607;52.130;5.430;2023-03-03T09:40:39;102850.84;;;5.08;100.00
71774;BME280;59607;52.130;5.430;2023-03-03T09:43:34;102858.94;;;5.19;100.00
71774;BME280;59607;52.130;5.430;2023-03-03T09:55:30;102857.03;;;5.05;100.00
71774;BME280;59607;52.130;5.430;2023-03-03T09:58:22;102862.84;;;5.28;100.00
71774;BME280;59607;52.130;5.430;2023-03-03T10:06:37;102858.25;;;5.33;100.00
71774;BME280;59607;52.130;5.430;2023-03-03T10:09:38;102863.44;;;5.51;100.00
71774;BME280;59607;52.130;5.430;2023-03-03T10:38:45;102860.56;;;6.72;94.68
71774;BME280;59607;52.130;5.430;2023-03-03T10:41:25;102866.47;;;6.59;93.23
71774;BME280;59607;52.130;5.430;2023-03-03T10:47:46;102856.84;;;6.92;92.82
71774;BME280;59607;52.130;5.430;2023-03-03T11:01:46;102850.75;;;7.22;86.26
71774;BME280;59607;52.130;5.430;2023-03-03T11:07:43;102839.53;;;7.51;85.90
71774;BME280;59607;52.130;5.430;2023-03-03T11:10:23;102849.59;;;7.57;84.49
71774;BME280;59607;52.130;5.430;2023-03-03T11:16:13;102839.69;;;7.62;85.14
71774;BME280;59607;52.130;5.430;2023-03-03T11:22:25;102845.16;;;8.01;82.01
71774;BME280;59607;52.130;5.430;2023-03-03T11:25:09;102837.81;;;7.79;81.66
71774;BME280;59607;52.130;5.430;2023-03-03T11:31:18;102830.94;;;7.63;79.10
71774;BME280;59607;52.130;5.430;2023-03-03T11:36:48;102826.47;;;7.36;80.71
71774;BME280;59607;52.130;5.430;2023-03-03T11:39:24;102820.84;;;7.86;76.47
71774;BME280;59607;52.130;5.430;2023-03-03T11:42:55;102821.78;;;8.27;77.37
71774;BME280;59607;52.130;5.430;2023-03-03T11:45:18;102818.16;;;8.58;72.85
71774;BME280;59607;52.130;5.430;2023-03-03T11:50:59;102825.56;;;8.09;72.26
71774;BME280;59607;52.130;5.430;2023-03-03T11:53:31;102818.69;;;7.78;72.21
71774;BME280;59607;52.130;5.430;2023-03-03T11:56:18;102822.72;;;7.55;73.07
71774;BME280;59607;52.130;5.430;2023-03-03T12:01:41;102814.38;;;8.07;74.57
71774;BME280;59607;52.130;5.430;2023-03-03T12:10:02;102816.34;;;7.88;71.08
71774;BME280;59607;52.130;5.430;2023-03-03T12:27:27;102789.56;;;8.82;66.08
71774;BME280;59607;52.130;5.430;2023-03-03T12:32:54;102785.47;;;9.04;66.46
71774;BME280;59607;52.130;5.430;2023-03-03T12:38:53;102782.38;;;8.58;64.31
71774;BME280;59607;52.130;5.430;2023-03-03T12:44:24;102783.44;;;8.69;64.66
71774;BME280;59607;52.130;5.430;2023-03-03T12:47:15;102778.06;;;9.11;63.77
71774;BME280;59607;52.130;5.430;2023-03-03T12:53:03;102766.38;;;9.54;61.61
71774;BME280;59607;52.130;5.430;2023-03-03T12:56:04;102759.81;;;9.86;61.87
71774;BME280;59607;52.130;5.430;2023-03-03T12:59:01;102774.91;;;9.32;61.90
71774;BME280;59607;52.130;5.430;2023-03-03T13:01:44;102767.78;;;9.08;63.15
71774;BME280;59607;52.130;5.430;2023-03-03T13:04:34;102769.13;;;9.00;64.86
71774;BME280;59607;52.130;5.430;2023-03-03T13:07:22;102768.81;;;8.92;66.67
71774;BME280;59607;52.130;5.430;2023-03-03T13:12:55;102776.84;;;8.63;67.48
71774;BME280;59607;52.130;5.430;2023-03-03T13:18:38;102780.19;;;8.37;69.35
71774;BME280;59607;52.130;5.430;2023-03-03T13:21:23;102779.59;;;8.47;68.49
71774;BME280;59607;52.130;5.430;2023-03-03T13:24:22;102774.34;;;8.47;67.67
71774;BME280;59607;52.130;5.430;2023-03-03T13:27:08;102771.84;;;8.45;66.08
71774;BME280;59607;52.130;5.430;2023-03-03T13:30:03;102767.75;;;8.41;66.30
71774;BME280;59607;52.130;5.430;2023-03-03T13:33:05;102768.00;;;8.51;65.78
71774;BME280;59607;52.130;5.430;2023-03-03T13:35:42;102771.47;;;8.51;67.07
71774;BME280;59607;52.130;5.430;2023-03-03T13:38:21;102775.72;;;8.39;66.35
71774;BME280;59607;52.130;5.430;2023-03-03T13:53:00;102767.31;;;8.34;68.91
71774;BME280;59607;52.130;5.430;2023-03-03T13:59:15;102770.00;;;8.20;69.22
71774;BME280;59607;52.130;5.430;2023-03-03T14:05:02;102759.94;;;8.13;70.79
71774;BME280;59607;52.130;5.430;2023-03-03T14:07:36;102764.75;;;8.20;69.90
71774;BME280;59607;52.130;5.430;2023-03-03T14:13:02;102768.22;;;8.20;70.83
71774;BME280;59607;52.130;5.430;2023-03-03T14:19:02;102758.78;;;8.18;70.27
71774;BME280;59607;52.130;5.430;2023-03-03T14:21:50;102761.19;;;8.08;68.21
71774;BME280;59607;52.130;5.430;2023-03-03T14:24:24;102761.50;;;8.16;68.33
71774;BME280;59607;52.130;5.430;2023-03-03T14:27:28;102757.25;;;8.00;67.57
71774;BME280;59607;52.130;5.430;2023-03-03T14:30:33;102747.66;;;8.01;68.21
71774;BME280;59607;52.130;5.430;2023-03-03T14:36:01;102746.22;;;8.10;67.15
71774;BME280;59607;52.130;5.430;2023-03-03T14:43:55;102752.19;;;8.12;64.12
71774;BME280;59607;52.130;5.430;2023-03-03T14:46:32;102748.22;;;8.19;63.37
71774;BME280;59607;52.130;5.430;2023-03-03T14:49:05;102746.00;;;8.13;62.49
71774;BME280;59607;52.130;5.430;2023-03-03T14:51:43;102738.81;;;8.17;62.49
71774;BME280;59607;52.130;5.430;2023-03-03T14:54:20;102739.38;;;8.22;61.98
71774;BME280;59607;52.130;5.430;2023-03-03T14:56:57;102737.25;;;8.14;62.14
71774;BME280;59607;52.130;5.430;2023-03-03T14:59:27;102739.88;;;8.14;62.12
71774;BME280;59607;52.130;5.430;2023-03-03T15:04:46;102730.47;;;8.24;62.34
71774;BME280;59607;52.130;5.430;2023-03-03T15:09:52;102738.16;;;8.13;63.17
71774;BME280;59607;52.130;5.430;2023-03-03T15:15:17;102735.81;;;7.95;62.83
71774;BME280;59607;52.130;5.430;2023-03-03T15:17:55;102727.56;;;8.01;64.06
71774;BME280;59607;52.130;5.430;2023-03-03T15:20:41;102737.88;;;7.90;64.36
71774;BME280;59607;52.130;5.430;2023-03-03T15:26:45;102738.25;;;7.84;64.96
71774;BME280;59607;52.130;5.430;2023-03-03T15:29:49;102726.34;;;7.80;65.45
71774;BME280;59607;52.130;5.430;2023-03-03T15:38:20;102717.16;;;7.87;65.62
71774;BME280;59607;52.130;5.430;2023-03-03T15:40:59;102713.72;;;7.86;65.69
71774;BME280;59607;52.130;5.430;2023-03-03T15:55:19;102719.38;;;7.65;64.99
71774;BME280;59607;52.130;5.430;2023-03-03T15:58:27;102715.00;;;7.51;64.76
71774;BME280;59607;52.130;5.430;2023-03-03T16:01:26;102711.41;;;7.39;65.38
71774;BME280;59607;52.130;5.430;2023-03-03T16:04:00;102714.72;;;7.41;65.26
71774;BME280;59607;52.130;5.430;2023-03-03T16:06:44;102710.56;;;7.39;64.77
71774;BME280;59607;52.130;5.430;2023-03-03T16:15:49;102721.56;;;7.15;65.47
71774;BME280;59607;52.130;5.430;2023-03-03T16:21:16;102721.09;;;7.08;65.78
71774;BME280;59607;52.130;5.430;2023-03-03T16:23:57;102721.66;;;6.99;65.47
71774;BME280;59607;52.130;5.430;2023-03-03T16:27:24;102722.75;;;6.95;65.83
71774;BME280;59607;52.130;5.430;2023-03-03T16:30:30;102723.50;;;6.97;66.40
71774;BME280;59607;52.130;5.430;2023-03-03T16:36:31;102717.72;;;6.91;66.45
71774;BME280;59607;52.130;5.430;2023-03-03T16:38:53;102716.53;;;6.97;66.52
71774;BME280;59607;52.130;5.430;2023-03-03T16:50:53;102711.59;;;6.93;67.61
71774;BME280;59607;52.130;5.430;2023-03-03T16:56:43;102715.97;;;6.92;67.83
71774;BME280;59607;52.130;5.430;2023-03-03T17:05:00;102724.16;;;6.86;68.48
71774;BME280;59607;52.130;5.430;2023-03-03T17:16:43;102717.44;;;6.82;69.21
71774;BME280;59607;52.130;5.430;2023-03-03T17:22:28;102728.22;;;6.75;69.82
71774;BME280;59607;52.130;5.430;2023-03-03T17:25:18;102731.59;;;6.77;69.79
71774;BME280;59607;52.130;5.430;2023-03-03T17:30:59;102743.56;;;6.65;70.18
71774;BME280;59607;52.130;5.430;2023-03-03T17:42:12;102741.03;;;6.64;71.48
71774;BME280;59607;52.130;5.430;2023-03-03T17:47:52;102744.09;;;6.56;72.73
71774;BME280;59607;52.130;5.430;2023-03-03T17:56:32;102755.88;;;6.47;73.71
71774;BME280;59607;52.130;5.430;2023-03-03T17:59:12;102760.53;;;6.42;73.28
71774;BME280;59607;52.130;5.430;2023-03-03T18:02:27;102760.72;;;6.39;74.10
71774;BME280;59607;52.130;5.430;2023-03-03T18:20:17;102759.72;;;6.25;74.14
71774;BME280;59607;52.130;5.430;2023-03-03T18:22:53;102777.28;;;6.22;74.00
71774;BME280;59607;52.130;5.430;2023-03-03T18:25:50;102780.66;;;6.24;74.31
71774;BME280;59607;52.130;5.430;2023-03-03T18:28:44;102776.69;;;6.33;74.59